createdAt,value
2019-04-10T00:01:25.900Z,7.50
2019-04-10T00:03:58.687Z,7.40
2019-04-10T00:06:30.008Z,7.40
2019-04-10T00:09:02.945Z,7.30
2019-04-10T00:11:36.674Z,7.30
2019-04-10T00:14:08.360Z,7.30
2019-04-10T00:16:40.488Z,7.20
2019-04-10T00:19:12.788Z,7.20
2019-04-10T00:21:45.217Z,7.20
2019-04-10T00:24:16.917Z,7.20
2019-04-10T00:26:48.255Z,7.10
2019-04-10T00:29:20.334Z,7.00
2019-04-10T00:31:54.142Z,7.00
2019-04-10T00:34:25.729Z,6.90
2019-04-10T00:36:57.646Z,6.90
2019-04-10T00:39:28.807Z,6.80
2019-04-10T00:42:00.863Z,6.70
2019-04-10T00:44:32.190Z,6.60
2019-04-10T00:47:04.511Z,6.70
2019-04-10T00:49:36.548Z,6.60
2019-04-10T00:52:08.031Z,6.60
2019-04-10T00:54:39.331Z,6.60
2019-04-10T00:57:11.214Z,6.60
2019-04-10T00:59:42.269Z,6.60
2019-04-10T01:02:14.975Z,6.60
2019-04-10T01:04:46.724Z,6.60
2019-04-10T01:07:18.893Z,6.60
2019-04-10T01:09:50.433Z,6.50
2019-04-10T01:12:22.079Z,6.50
2019-04-10T01:14:54.034Z,6.50
2019-04-10T01:17:26.334Z,6.50
2019-04-10T01:19:58.493Z,6.50
2019-04-10T01:22:30.890Z,6.60
2019-04-10T01:25:02.289Z,6.50
2019-04-10T01:27:34.109Z,6.50
2019-04-10T01:30:07.073Z,6.50
2019-04-10T01:32:38.412Z,6.40
2019-04-10T01:35:09.977Z,6.40
2019-04-10T01:37:49.504Z,6.40
2019-04-10T01:40:15.002Z,6.40
2019-04-10T01:42:59.959Z,6.40
2019-04-10T01:45:20.031Z,6.40
2019-04-10T01:47:51.282Z,6.40
2019-04-10T01:50:22.597Z,6.40
2019-04-10T01:52:53.714Z,6.40
2019-04-10T01:55:29.546Z,6.40
2019-04-10T01:58:00.968Z,6.40
2019-04-10T02:00:32.843Z,6.40
2019-04-10T02:03:04.137Z,6.40
2019-04-10T02:05:36.592Z,6.40
2019-04-10T02:08:11.427Z,6.40
2019-04-10T02:10:41.224Z,6.40
2019-04-10T02:13:12.685Z,6.40
2019-04-10T02:15:44.112Z,6.30
2019-04-10T02:18:15.291Z,6.30
2019-04-10T02:20:47.366Z,6.30
2019-04-10T02:23:19.341Z,6.20
2019-04-10T02:25:50.939Z,6.10
2019-04-10T02:28:22.778Z,6.10
2019-04-10T02:30:54.552Z,6.10
2019-04-10T02:33:27.526Z,6.10
2019-04-10T02:35:59.187Z,6.10
2019-04-10T02:38:48.963Z,6.10
2019-04-10T02:41:03.598Z,6.10
2019-04-10T02:43:36.028Z,6.00
2019-04-10T02:46:08.335Z,6.00
2019-04-10T02:48:41.553Z,5.90
2019-04-10T02:51:13.674Z,5.80
2019-04-10T02:53:45.941Z,5.70
2019-04-10T02:56:18.121Z,5.70
2019-04-10T02:58:51.557Z,5.70
2019-04-10T03:01:25.065Z,5.70
2019-04-10T03:03:57.070Z,5.60
2019-04-10T03:06:29.282Z,5.50
2019-04-10T03:09:16.340Z,5.50
2019-04-10T03:11:35.397Z,5.40
2019-04-10T03:14:08.023Z,5.40
2019-04-10T03:16:39.929Z,5.30
2019-04-10T03:19:11.616Z,5.20
2019-04-10T03:21:43.380Z,5.20
2019-04-10T03:24:14.924Z,5.10
2019-04-10T03:26:46.550Z,5.10
2019-04-10T03:29:18.285Z,5.00
2019-04-10T03:31:52.271Z,5.00
2019-04-10T03:34:27.818Z,4.90
2019-04-10T03:36:58.364Z,5.00
2019-04-10T03:39:31.699Z,5.00
2019-04-10T03:42:06.496Z,5.00
2019-04-10T03:44:38.886Z,4.90
2019-04-10T03:47:11.178Z,4.80
2019-04-10T03:49:42.664Z,4.80
2019-04-10T03:52:14.375Z,4.70
2019-04-10T03:54:48.163Z,4.70
2019-04-10T03:57:20.580Z,4.70
2019-04-10T03:59:51.934Z,4.70
2019-04-10T04:02:23.997Z,4.60
2019-04-10T04:04:55.935Z,4.70
2019-04-10T04:07:27.846Z,4.60
2019-04-10T04:10:00.195Z,4.50
2019-04-10T04:12:32.782Z,4.50
2019-04-10T04:15:05.386Z,4.40
2019-04-10T04:17:37.815Z,4.40
2019-04-10T04:20:09.329Z,4.30
2019-04-10T04:22:41.187Z,4.20
2019-04-10T04:25:13.063Z,4.20
2019-04-10T04:27:44.746Z,4.30
2019-04-10T04:30:16.980Z,4.20
2019-04-10T04:32:48.599Z,4.30
2019-04-10T04:35:20.258Z,4.20
2019-04-10T04:37:52.622Z,4.20
2019-04-10T04:40:25.898Z,4.20
2019-04-10T04:42:58.029Z,4.20
2019-04-10T04:45:30.020Z,4.20
2019-04-10T04:48:01.829Z,4.20
2019-04-10T04:50:34.226Z,4.10
2019-04-10T04:53:06.680Z,4.10
2019-04-10T04:55:39.428Z,4.10
2019-04-10T04:58:11.749Z,4.10
2019-04-10T05:00:42.993Z,4.10
2019-04-10T05:03:14.606Z,4.10
2019-04-10T05:05:45.766Z,4.10
2019-04-10T05:08:17.525Z,4.10
2019-04-10T05:10:50.192Z,4.10
2019-04-10T05:13:22.342Z,4.10
2019-04-10T05:15:53.944Z,4.10
2019-04-10T05:18:25.442Z,4.10
2019-04-10T05:20:56.815Z,4.10
2019-04-10T05:23:28.836Z,4.10
2019-04-10T05:26:00.565Z,4.10
2019-04-10T05:28:32.738Z,4.10
2019-04-10T05:31:04.073Z,4.10
2019-04-10T05:33:36.607Z,4.10
2019-04-10T05:36:08.937Z,4.10
2019-04-10T05:38:40.208Z,4.10
2019-04-10T05:41:11.502Z,4.20
2019-04-10T05:43:42.843Z,4.20
2019-04-10T05:46:15.118Z,4.20
2019-04-10T05:48:46.358Z,4.30
2019-04-10T05:51:17.637Z,4.30
2019-04-10T05:53:51.346Z,4.40
2019-04-10T05:56:22.517Z,4.40
2019-04-10T05:58:54.599Z,4.50
2019-04-10T06:01:35.241Z,4.50
2019-04-10T06:03:59.417Z,4.50
2019-04-10T06:06:30.718Z,4.50
2019-04-10T06:09:02.583Z,4.60
2019-04-10T06:11:35.127Z,4.60
2019-04-10T06:14:06.652Z,4.60
2019-04-10T06:16:37.817Z,4.60
2019-04-10T06:19:09.514Z,4.50
2019-04-10T06:21:41.134Z,4.50
2019-04-10T06:24:12.434Z,4.50
2019-04-10T06:26:43.739Z,4.40
2019-04-10T06:29:15.102Z,4.30
2019-04-10T06:31:47.198Z,4.30
2019-04-10T06:34:20.475Z,4.30
2019-04-10T06:36:52.032Z,4.20
2019-04-10T06:39:23.318Z,4.20
2019-04-10T06:41:55.985Z,4.20
2019-04-10T06:44:28.767Z,4.30
2019-04-10T06:47:00.382Z,4.40
2019-04-10T06:49:33.094Z,4.60
2019-04-10T06:52:04.748Z,4.70
2019-04-10T06:54:36.483Z,4.90
2019-04-10T06:57:08.284Z,4.90
2019-04-10T06:59:40.016Z,5.00
2019-04-10T07:02:21.779Z,5.20
2019-04-10T07:04:51.553Z,5.30
2019-04-10T07:07:20.241Z,5.40
2019-04-10T07:09:52.315Z,5.50
2019-04-10T07:12:30.142Z,5.50
2019-04-10T07:14:59.734Z,5.50
2019-04-10T07:17:35.602Z,5.70
2019-04-10T07:20:05.319Z,5.80
2019-04-10T07:22:44.568Z,5.90
2019-04-10T07:25:12.706Z,6.00
2019-04-10T07:27:44.149Z,6.00
2019-04-10T07:30:17.327Z,6.10
2019-04-10T07:32:49.213Z,6.20
2019-04-10T07:35:21.858Z,6.30
2019-04-10T07:37:56.432Z,6.60
2019-04-10T07:40:28.247Z,6.80
2019-04-10T07:43:00.677Z,6.80
2019-04-10T07:45:32.097Z,6.90
2019-04-10T07:48:04.447Z,7.00
2019-04-10T07:50:37.124Z,7.00
2019-04-10T07:53:08.564Z,7.10
2019-04-10T07:55:39.810Z,7.10
2019-04-10T07:58:11.116Z,7.10
2019-04-10T08:00:42.943Z,7.30
2019-04-10T08:03:14.728Z,7.30
2019-04-10T08:05:46.114Z,7.40
2019-04-10T08:08:17.541Z,7.40
2019-04-10T08:10:49.153Z,7.50
2019-04-10T08:13:20.485Z,7.70
2019-04-10T08:15:52.254Z,7.80
2019-04-10T08:18:23.593Z,7.80
2019-04-10T08:20:55.228Z,7.80
2019-04-10T08:23:28.122Z,7.80
2019-04-10T08:26:00.106Z,7.80
2019-04-10T08:28:32.667Z,7.60
2019-04-10T08:31:04.469Z,7.50
2019-04-10T08:33:36.684Z,7.40
2019-04-10T08:36:08.031Z,7.50
2019-04-10T08:38:40.079Z,7.40
2019-04-10T08:41:11.449Z,7.40
2019-04-10T08:43:42.904Z,7.30
2019-04-10T08:46:14.453Z,7.30
2019-04-10T08:48:46.267Z,7.30
2019-04-10T08:51:17.913Z,7.40
2019-04-10T08:53:49.179Z,7.60
2019-04-10T08:56:20.771Z,7.80
2019-04-10T08:58:52.173Z,7.90
2019-04-10T09:01:23.530Z,8.00
2019-04-10T09:03:55.222Z,8.10
2019-04-10T09:06:27.258Z,8.10
2019-04-10T09:08:59.357Z,8.10
2019-04-10T09:11:32.968Z,8.20
2019-04-10T09:14:05.239Z,8.30
2019-04-10T09:16:36.503Z,8.30
2019-04-10T09:19:07.670Z,8.20
2019-04-10T09:21:38.924Z,8.20
2019-04-10T09:24:10.285Z,8.20
2019-04-10T09:26:41.541Z,8.20
2019-04-10T09:29:13.994Z,8.30
2019-04-10T09:31:46.071Z,8.30
2019-04-10T09:34:19.910Z,8.40
2019-04-10T09:36:53.395Z,8.30
2019-04-10T09:39:27.583Z,8.30
2019-04-10T09:41:59.051Z,8.40
2019-04-10T09:44:30.506Z,8.50
2019-04-10T09:47:02.143Z,8.40
2019-04-10T09:49:40.371Z,8.30
2019-04-10T09:52:06.943Z,8.20
2019-04-10T09:54:38.549Z,8.20
2019-04-10T09:57:09.805Z,8.30
2019-04-10T09:59:41.306Z,8.50
2019-04-10T10:02:13.254Z,8.60
2019-04-10T10:04:46.014Z,8.70
2019-04-10T10:07:18.637Z,8.70
2019-04-10T10:09:49.904Z,8.80
2019-04-10T10:12:21.167Z,8.90
2019-04-10T10:14:52.588Z,9.10
2019-04-10T10:17:24.446Z,9.30
2019-04-10T10:19:55.709Z,9.40
2019-04-10T10:22:27.414Z,9.60
2019-04-10T10:24:59.373Z,9.60
2019-04-10T10:27:30.860Z,9.60
2019-04-10T10:30:02.546Z,9.50
2019-04-10T10:32:35.140Z,9.50
2019-04-10T10:35:07.406Z,9.50
2019-04-10T10:37:39.076Z,9.40
2019-04-10T10:40:12.193Z,9.30
2019-04-10T10:42:43.554Z,9.30
2019-04-10T10:45:16.006Z,9.50
2019-04-10T10:47:48.484Z,9.60
2019-04-10T10:50:19.909Z,9.70
2019-04-10T10:52:52.144Z,9.90
2019-04-10T10:55:25.413Z,10.00
2019-04-10T10:57:59.406Z,10.20
2019-04-10T11:00:31.444Z,10.30
2019-04-10T11:03:02.909Z,10.20
2019-04-10T11:05:37.156Z,10.30
2019-04-10T11:08:08.532Z,10.40
2019-04-10T11:10:41.079Z,10.50
2019-04-10T11:13:14.926Z,10.60
2019-04-10T11:15:46.422Z,10.80
2019-04-10T11:18:19.279Z,11.10
2019-04-10T11:20:50.658Z,11.50
2019-04-10T11:23:22.236Z,11.70
2019-04-10T11:25:55.146Z,11.50
2019-04-10T11:31:01.721Z,11.30
2019-04-10T11:33:34.799Z,11.60
2019-04-10T11:36:07.755Z,11.90
2019-04-10T11:38:39.875Z,12.20
2019-04-10T11:41:12.514Z,12.30
2019-04-10T11:43:44.608Z,12.40
2019-04-10T11:46:17.145Z,12.50
2019-04-10T11:48:49.312Z,12.40
2019-04-10T11:51:23.517Z,12.40
2019-04-10T11:53:56.951Z,12.60
2019-04-10T11:56:30.065Z,12.70
2019-04-10T11:59:01.643Z,12.80
2019-04-10T12:01:35.946Z,12.60
2019-04-10T12:04:10.727Z,12.50
2019-04-10T12:06:43.214Z,12.60
2019-04-10T12:10:01.867Z,12.70
2019-04-10T12:11:51.209Z,13.00
2019-04-10T12:14:23.634Z,13.40
2019-04-10T12:16:55.831Z,13.70
2019-04-10T12:19:27.165Z,13.90
2019-04-10T12:21:58.300Z,13.40
2019-04-10T12:24:30.300Z,13.40
2019-04-10T12:27:02.421Z,13.60
2019-04-10T12:29:34.984Z,13.30
2019-04-10T12:32:06.380Z,13.00
2019-04-10T12:34:38.292Z,13.20
2019-04-10T12:37:09.518Z,13.30
2019-04-10T12:39:41.244Z,13.30
2019-04-10T12:42:12.506Z,13.40
2019-04-10T12:44:44.158Z,13.50
2019-04-10T12:47:15.534Z,13.80
2019-04-10T12:49:47.663Z,13.80
2019-04-10T12:52:20.583Z,13.90
2019-04-10T12:54:53.239Z,14.00
2019-04-10T12:57:24.586Z,14.10
2019-04-10T13:00:01.383Z,14.30
2019-04-10T13:02:30.191Z,14.40
2019-04-10T13:05:02.923Z,14.30
2019-04-10T13:07:37.964Z,14.00
2019-04-10T13:10:09.290Z,13.80
2019-04-10T13:12:41.538Z,13.60
2019-04-10T13:15:15.147Z,13.50
2019-04-10T13:17:47.000Z,13.40
2019-04-10T13:20:19.909Z,13.40
2019-04-10T13:22:51.197Z,13.40
2019-04-10T13:25:23.954Z,13.50
2019-04-10T13:27:55.355Z,13.60
2019-04-10T13:30:27.057Z,13.50
2019-04-10T13:32:58.660Z,13.30
2019-04-10T13:35:30.277Z,13.30
2019-04-10T13:38:01.709Z,13.30
2019-04-10T13:40:33.772Z,13.50
2019-04-10T13:43:05.364Z,13.60
2019-04-10T13:45:37.420Z,13.60
2019-04-10T13:48:08.664Z,13.40
2019-04-10T13:50:41.077Z,13.20
2019-04-10T13:53:13.444Z,13.20
2019-04-10T13:55:44.872Z,13.10
2019-04-10T13:58:17.264Z,13.00
2019-04-10T14:00:49.674Z,13.10
2019-04-10T14:03:21.271Z,13.20
2019-04-10T14:05:52.873Z,13.10
2019-04-10T14:08:40.452Z,13.00
2019-04-10T14:10:57.835Z,13.00
2019-04-10T14:13:29.640Z,13.10
2019-04-10T14:16:02.299Z,13.20
2019-04-10T14:18:33.459Z,13.40
2019-04-10T14:21:09.705Z,13.30
2019-04-10T14:23:39.528Z,12.70
2019-04-10T14:26:42.013Z,12.50
2019-04-10T14:29:09.808Z,12.50
2019-04-10T14:31:46.699Z,12.60
2019-04-10T14:34:19.847Z,12.70
2019-04-10T14:36:52.726Z,12.90
2019-04-10T14:39:24.453Z,12.80
2019-04-10T14:41:55.738Z,12.70
2019-04-10T14:44:27.028Z,12.70
2019-04-10T14:46:58.298Z,12.70
2019-04-10T14:49:31.334Z,12.60
2019-04-10T14:52:03.265Z,12.50
2019-04-10T14:54:35.689Z,12.50
2019-04-10T14:57:07.551Z,12.40
2019-04-10T14:59:40.096Z,12.40
2019-04-10T15:02:12.657Z,12.30
2019-04-10T15:04:45.748Z,12.30
2019-04-10T15:07:18.210Z,12.30
2019-04-10T15:09:49.664Z,12.30
2019-04-10T15:12:20.772Z,12.40
2019-04-10T15:14:52.224Z,12.30
2019-04-10T15:17:23.802Z,12.40
2019-04-10T15:19:55.080Z,12.40
2019-04-10T15:22:27.562Z,12.30
2019-04-10T15:24:59.339Z,12.20
2019-04-10T15:27:31.597Z,12.00
2019-04-10T15:30:02.856Z,12.00
2019-04-10T15:32:35.925Z,11.90
2019-04-10T15:35:08.381Z,11.80
2019-04-10T15:37:39.762Z,11.60
2019-04-10T15:40:19.581Z,11.70
2019-04-10T15:42:46.116Z,11.70
2019-04-10T15:45:18.169Z,11.70
2019-04-10T15:47:54.161Z,11.60
2019-04-10T15:50:22.762Z,11.40
2019-04-10T15:52:55.675Z,11.00
2019-04-10T15:55:28.030Z,11.10
2019-04-10T15:58:02.042Z,11.20
2019-04-10T16:00:33.073Z,11.20
2019-04-10T16:03:05.005Z,11.20
2019-04-10T16:05:36.368Z,11.20
2019-04-10T16:08:08.161Z,11.20
2019-04-10T16:10:47.688Z,11.00
2019-04-10T16:13:37.165Z,10.80
2019-04-10T16:16:26.061Z,10.70
2019-04-10T16:19:08.454Z,10.80
2019-04-10T16:21:41.488Z,10.80
2019-04-10T16:24:14.459Z,10.70
2019-04-10T16:26:47.290Z,10.80
2019-04-10T16:29:20.212Z,10.80
2019-04-10T16:31:53.114Z,10.80
2019-04-10T16:34:24.893Z,10.80
2019-04-10T16:36:57.652Z,10.70
2019-04-10T16:39:30.084Z,10.70
2019-04-10T16:42:02.240Z,10.70
2019-04-10T16:44:33.732Z,10.70
2019-04-10T16:47:05.888Z,10.80
2019-04-10T16:49:37.565Z,10.80
2019-04-10T16:52:09.564Z,10.80
2019-04-10T16:54:41.027Z,10.70
2019-04-10T16:57:12.740Z,10.60
2019-04-10T16:59:44.508Z,10.50
2019-04-10T17:02:15.802Z,10.50
2019-04-10T17:04:47.997Z,10.50
2019-04-10T17:07:19.634Z,10.40
2019-04-10T17:09:51.479Z,10.40
2019-04-10T17:12:23.252Z,10.30
2019-04-10T17:14:55.428Z,10.20
2019-04-10T17:17:26.888Z,10.10
2019-04-10T17:19:59.501Z,10.10
2019-04-10T17:22:39.076Z,10.00
2019-04-10T17:25:06.317Z,9.90
2019-04-10T17:27:39.407Z,9.90
2019-04-10T17:30:11.650Z,9.80
2019-04-10T17:32:43.054Z,9.70
2019-04-10T17:35:15.714Z,9.60
2019-04-10T17:37:47.782Z,9.60
2019-04-10T17:40:31.086Z,9.50
2019-04-10T17:42:52.838Z,9.50
2019-04-10T17:45:25.808Z,9.50
2019-04-10T17:47:57.994Z,9.50
2019-04-10T17:50:30.045Z,9.40
2019-04-10T17:53:01.860Z,9.40
2019-04-10T17:55:33.657Z,9.30
2019-04-10T17:58:05.661Z,9.30
2019-04-10T18:00:45.183Z,9.20
2019-04-10T18:03:18.638Z,9.20
2019-04-10T18:05:50.940Z,9.10
2019-04-10T18:08:26.379Z,9.10
2019-04-10T18:10:57.134Z,9.00
2019-04-10T18:13:28.893Z,9.00
2019-04-10T18:16:00.517Z,9.00
2019-04-10T18:18:32.639Z,8.90
2019-04-10T18:21:04.492Z,8.80
2019-04-10T18:23:36.346Z,8.70
2019-04-10T18:26:08.742Z,8.70
2019-04-10T18:28:41.387Z,8.70
2019-04-10T18:31:13.078Z,8.70
2019-04-10T18:33:45.282Z,8.60
2019-04-10T18:36:17.528Z,8.50
2019-04-10T18:38:48.631Z,8.50
2019-04-10T18:41:19.996Z,8.40
2019-04-10T18:43:50.995Z,8.40
2019-04-10T18:46:22.517Z,8.30
2019-04-10T18:48:56.841Z,8.20
2019-04-10T18:51:28.280Z,8.20
2019-04-10T18:53:59.736Z,8.20
2019-04-10T18:56:31.402Z,8.20
2019-04-10T18:59:12.392Z,8.10
2019-04-10T19:01:51.736Z,8.10
2019-04-10T19:04:39.158Z,8.20
2019-04-10T19:07:11.223Z,8.10
2019-04-10T19:09:43.244Z,8.00
2019-04-10T19:12:14.709Z,8.00
2019-04-10T19:14:46.705Z,7.90
2019-04-10T19:17:19.000Z,7.90
2019-04-10T19:19:50.840Z,7.90
2019-04-10T19:22:22.240Z,7.80
2019-04-10T19:24:54.877Z,7.80
2019-04-10T19:27:26.724Z,7.70
2019-04-10T19:29:59.084Z,7.70
2019-04-10T19:32:35.291Z,7.70
2019-04-10T19:35:07.677Z,7.70
2019-04-10T19:37:39.257Z,7.70
2019-04-10T19:40:11.319Z,7.70
2019-04-10T19:42:43.758Z,7.70
2019-04-10T19:45:15.355Z,7.60
2019-04-10T19:47:46.593Z,7.60
2019-04-10T19:50:19.328Z,7.60
2019-04-10T19:52:51.121Z,7.50
2019-04-10T19:55:23.970Z,7.50
2019-04-10T19:57:55.455Z,7.50
2019-04-10T20:00:31.069Z,7.40
2019-04-10T20:03:02.196Z,7.40
2019-04-10T20:05:33.695Z,7.40
2019-04-10T20:08:05.722Z,7.40
2019-04-10T20:10:37.435Z,7.30
2019-04-10T20:13:08.948Z,7.30
2019-04-10T20:15:41.029Z,7.30
2019-04-10T20:18:12.693Z,7.30
2019-04-10T20:20:43.945Z,7.20
2019-04-10T20:23:15.981Z,7.20
2019-04-10T20:25:48.507Z,7.20
2019-04-10T20:28:20.608Z,7.20
2019-04-10T20:30:54.573Z,7.10
2019-04-10T20:33:25.068Z,7.10
2019-04-10T20:35:56.507Z,7.10
2019-04-10T20:38:27.997Z,7.10
2019-04-10T20:41:00.324Z,7.00
2019-04-10T20:43:33.688Z,7.00
2019-04-10T20:46:06.331Z,7.00
2019-04-10T20:48:40.369Z,6.90
2019-04-10T20:51:12.448Z,6.90
2019-04-10T20:53:44.339Z,6.90
2019-04-10T20:56:18.283Z,6.80
2019-04-10T20:58:50.533Z,6.90
2019-04-10T21:01:22.416Z,6.80
2019-04-10T21:03:55.261Z,6.70
2019-04-10T21:06:27.253Z,6.70
2019-04-10T21:08:58.940Z,6.60
2019-04-10T21:11:31.317Z,6.60
2019-04-10T21:14:03.069Z,6.60
2019-04-10T21:16:35.753Z,6.50
2019-04-10T21:19:06.969Z,6.50
2019-04-10T21:21:39.098Z,6.50
2019-04-10T21:24:11.373Z,6.50
2019-04-10T21:26:42.711Z,6.40
2019-04-10T21:29:21.046Z,6.30
2019-04-10T21:32:09.735Z,6.30
2019-04-10T21:34:43.242Z,6.30
2019-04-10T21:37:15.834Z,6.30
2019-04-10T21:39:48.138Z,6.30
2019-04-10T21:42:22.754Z,6.20
2019-04-10T21:44:53.379Z,6.10
2019-04-10T21:47:25.671Z,6.10
2019-04-10T21:49:57.308Z,6.00
2019-04-10T21:52:29.072Z,6.00
2019-04-10T21:55:00.729Z,6.00
2019-04-10T21:57:32.558Z,5.90
2019-04-10T22:00:03.882Z,5.90
2019-04-10T22:02:37.993Z,5.80
2019-04-10T22:05:10.212Z,5.80
2019-04-10T22:08:01.134Z,5.80
2019-04-10T22:10:37.444Z,5.80
2019-04-10T22:13:09.053Z,5.80
2019-04-10T22:15:42.041Z,5.70
2019-04-10T22:18:13.366Z,5.60
2019-04-10T22:20:44.680Z,5.60
2019-04-10T22:23:16.276Z,5.60
2019-04-10T22:25:47.968Z,5.50
2019-04-10T22:28:19.451Z,5.50
2019-04-10T22:30:50.720Z,5.40
2019-04-10T22:33:22.288Z,5.40
2019-04-10T22:35:53.447Z,5.40
2019-04-10T22:38:25.011Z,5.40
2019-04-10T22:40:58.084Z,5.30
2019-04-10T22:43:30.162Z,5.30
2019-04-10T22:46:02.589Z,5.30
2019-04-10T22:48:33.965Z,5.30
2019-04-10T22:51:07.955Z,5.20
2019-04-10T22:53:39.667Z,5.20
2019-04-10T22:56:10.958Z,5.20
2019-04-10T22:58:43.149Z,5.10
2019-04-10T23:01:15.853Z,5.10
2019-04-10T23:03:47.536Z,5.10
2019-04-10T23:06:18.781Z,5.00
2019-04-10T23:08:49.901Z,5.00
2019-04-10T23:11:30.442Z,5.00
2019-04-10T23:13:54.307Z,5.00
2019-04-10T23:16:26.168Z,4.90
2019-04-10T23:18:58.211Z,4.90
2019-04-10T23:21:30.397Z,4.90
2019-04-10T23:24:01.674Z,4.90
2019-04-10T23:26:33.326Z,4.80
2019-04-10T23:29:06.182Z,4.80
2019-04-10T23:31:37.459Z,4.70
2019-04-10T23:34:08.743Z,4.70
2019-04-10T23:36:40.389Z,4.60
2019-04-10T23:39:12.259Z,4.60
2019-04-10T23:41:43.483Z,4.60
2019-04-10T23:44:14.794Z,4.50
2019-04-10T23:46:45.944Z,4.50
2019-04-10T23:49:17.375Z,4.40
2019-04-10T23:51:49.561Z,4.50
2019-04-10T23:54:21.561Z,4.40
2019-04-10T23:56:54.678Z,4.40
2019-04-10T23:59:26.677Z,4.40
